< < Back
Terminal Aerodrome Forecast


Current Version              Previous Versions:   1  2  3  4  5  6  7  8  9  

Terminal Aerodrome Forecast

179
FTUS42 KFFC 291125
TAFPDK
TAF
KPDK 291125Z 2912/3012 33004KT P6SM FEW120 SCT250
     FM291500 31006KT P6SM SCT050
      TEMPO 2920/2923 6SM -TSRA BKN040CB
     FM300100 33003KT P6SM SCT100 BKN250=



Latest METAR

572
SAUS70 KWBC 291300 RRH
MTRPDK
METAR KPDK 291253Z 01005KT 10SM CLR 28/22 A3003 RMK AO2 SLP147
T02830222


USA.gov is the U.S. government's official web portal to all federal, state and local government web resources and services.